createdAt,value
2023-10-21T00:01:21.497Z,95510.47
2023-10-21T00:03:49.316Z,95514.33
2023-10-21T00:06:17.180Z,95518.70
2023-10-21T00:08:44.698Z,95518.83
2023-10-21T00:11:14.266Z,95521.39
2023-10-21T00:13:41.578Z,95523.34
2023-10-21T00:16:08.872Z,95517.65
2023-10-21T00:18:37.886Z,95520.15
2023-10-21T00:21:06.744Z,95522.56
2023-10-21T00:23:34.136Z,95524.33
2023-10-21T00:26:06.373Z,95524.98
2023-10-21T00:28:34.677Z,95529.00
2023-10-21T00:32:11.744Z,95530.98
2023-10-21T00:36:00.305Z,95536.99
2023-10-21T00:39:57.292Z,95544.02
2023-10-21T00:47:44.405Z,95560.15
2023-10-21T00:51:32.926Z,95561.48
2023-10-21T00:54:20.654Z,95572.83
2023-10-21T00:56:47.896Z,95568.85
2023-10-21T00:59:15.596Z,95570.67
2023-10-21T01:04:43.913Z,95572.20
2023-10-21T01:07:20.133Z,95571.62
2023-10-21T01:09:47.489Z,95573.51
2023-10-21T01:12:14.790Z,95571.27
2023-10-21T01:14:42.261Z,95569.30
2023-10-21T01:17:10.184Z,95570.00
2023-10-21T01:19:37.509Z,95569.89
2023-10-21T01:22:04.999Z,95570.11
2023-10-21T01:24:33.026Z,95564.10
2023-10-21T01:27:00.154Z,95563.85
2023-10-21T01:29:27.354Z,95565.05
2023-10-21T01:31:54.727Z,95564.61
2023-10-21T01:34:21.947Z,95568.89
2023-10-21T01:36:49.298Z,95569.69
2023-10-21T01:39:16.800Z,95571.34
2023-10-21T01:41:44.945Z,95581.55
2023-10-21T01:44:12.200Z,95587.48
2023-10-21T01:46:39.589Z,95593.79
2023-10-21T01:49:06.768Z,95598.84
2023-10-21T01:51:33.963Z,95604.84
2023-10-21T01:54:01.767Z,95608.12
2023-10-21T01:56:28.950Z,95609.06
2023-10-21T01:58:57.023Z,95609.98
2023-10-21T02:01:24.230Z,95611.09
2023-10-21T02:03:51.521Z,95613.28
2023-10-21T02:06:18.885Z,95614.95
2023-10-21T02:08:46.212Z,95614.80
2023-10-21T02:11:13.381Z,95620.77
2023-10-21T02:13:41.125Z,95627.61
2023-10-21T02:16:11.624Z,95629.36
2023-10-21T02:18:38.911Z,95629.46
2023-10-21T02:21:07.717Z,95628.64
2023-10-21T02:23:36.010Z,95625.39
2023-10-21T02:26:08.522Z,95620.40
2023-10-21T02:28:36.218Z,95616.84
2023-10-21T02:31:05.054Z,95610.02
2023-10-21T02:33:32.932Z,95614.16
2023-10-21T02:36:00.405Z,95618.55
2023-10-21T02:38:27.648Z,95619.27
2023-10-21T02:40:54.906Z,95615.36
2023-10-21T02:43:22.157Z,95616.95
2023-10-21T02:45:50.146Z,95613.17
2023-10-21T02:48:17.418Z,95614.44
2023-10-21T02:50:44.742Z,95617.34
2023-10-21T02:53:11.899Z,95623.00
2023-10-21T02:55:39.243Z,95622.06
2023-10-21T02:58:06.343Z,95627.35
2023-10-21T03:00:33.663Z,95632.70
2023-10-21T03:03:01.018Z,95635.66
2023-10-21T03:05:28.277Z,95638.28
2023-10-21T03:07:55.701Z,95638.08
2023-10-21T03:10:24.554Z,95642.57
2023-10-21T03:12:51.770Z,95651.30
2023-10-21T03:15:19.079Z,95647.20
2023-10-21T03:17:46.843Z,95650.84
2023-10-21T03:20:14.263Z,95651.30
2023-10-21T03:22:41.506Z,95651.35
2023-10-21T03:25:09.389Z,95656.29
2023-10-21T03:27:37.880Z,95660.87
2023-10-21T03:30:06.317Z,95668.15
2023-10-21T03:32:33.915Z,95673.38
2023-10-21T03:35:01.145Z,95672.52
2023-10-21T03:37:28.259Z,95670.64
2023-10-21T03:39:55.461Z,95680.44
2023-10-21T03:42:22.685Z,95679.25
2023-10-21T03:44:49.951Z,95683.20
2023-10-21T03:47:18.071Z,95693.50
2023-10-21T03:49:45.298Z,95704.04
2023-10-21T03:52:12.960Z,95692.80
2023-10-21T03:54:40.170Z,95689.89
2023-10-21T03:57:07.971Z,95689.36
2023-10-21T03:59:35.865Z,95680.14
2023-10-21T04:02:02.964Z,95675.69
2023-10-21T04:04:30.160Z,95669.79
2023-10-21T04:06:57.491Z,95670.23
2023-10-21T04:09:25.422Z,95682.71
2023-10-21T04:11:52.632Z,95688.63
2023-10-21T04:14:19.900Z,95686.52
2023-10-21T04:16:47.063Z,95690.40
2023-10-21T04:19:17.198Z,95686.91
2023-10-21T04:21:45.369Z,95700.20
2023-10-21T04:24:12.532Z,95723.24
2023-10-21T04:26:39.854Z,95731.00
2023-10-21T04:29:07.115Z,95734.75
2023-10-21T04:31:37.394Z,95731.95
2023-10-21T04:34:05.095Z,95735.38
2023-10-21T04:36:32.200Z,95747.48
2023-10-21T04:38:59.496Z,95751.23
2023-10-21T04:41:26.673Z,95755.77
2023-10-21T04:43:53.936Z,95754.30
2023-10-21T04:46:21.253Z,95770.45
2023-10-21T04:48:48.464Z,95775.83
2023-10-21T04:51:15.811Z,95786.51
2023-10-21T04:53:44.336Z,95792.84
2023-10-21T04:56:11.545Z,95802.96
2023-10-21T04:58:38.811Z,95815.73
2023-10-21T05:01:07.086Z,95827.98
2023-10-21T05:03:34.453Z,95829.21
2023-10-21T05:06:01.926Z,95827.09
2023-10-21T05:08:29.260Z,95831.91
2023-10-21T05:10:56.665Z,95828.30
2023-10-21T05:13:25.164Z,95829.41
2023-10-21T05:15:52.392Z,95830.25
2023-10-21T05:18:20.787Z,95835.77
2023-10-21T05:20:48.073Z,95843.63
2023-10-21T05:23:15.800Z,95849.92
2023-10-21T05:25:42.965Z,95851.70
2023-10-21T05:28:10.411Z,95852.52
2023-10-21T05:30:39.194Z,95865.23
2023-10-21T05:33:09.404Z,95866.41
2023-10-21T05:35:37.407Z,95868.52
2023-10-21T05:38:04.810Z,95872.02
2023-10-21T05:40:32.103Z,95871.66
2023-10-21T05:42:59.355Z,95874.95
2023-10-21T05:45:26.628Z,95881.36
2023-10-21T05:47:55.111Z,95889.42
2023-10-21T05:50:22.815Z,95903.02
2023-10-21T05:52:50.032Z,95910.75
2023-10-21T05:55:17.283Z,95912.52
2023-10-21T05:57:44.570Z,95922.10
2023-10-21T06:00:13.959Z,95927.83
2023-10-21T06:02:41.818Z,95920.67
2023-10-21T06:05:09.333Z,95928.60
2023-10-21T06:07:36.615Z,95933.05
2023-10-21T06:10:04.327Z,95944.32
2023-10-21T06:12:31.639Z,95945.95
2023-10-21T06:14:59.228Z,95953.27
2023-10-21T06:17:26.624Z,95939.39
2023-10-21T06:19:54.140Z,95933.89
2023-10-21T06:22:21.403Z,95943.08
2023-10-21T06:24:48.687Z,95952.08
2023-10-21T06:27:16.063Z,95948.35
2023-10-21T06:29:43.468Z,95950.16
2023-10-21T06:32:11.701Z,95955.06
2023-10-21T06:34:39.116Z,95959.52
2023-10-21T06:37:06.342Z,95959.69
2023-10-21T06:39:33.690Z,95962.55
2023-10-21T06:42:01.047Z,95971.45
2023-10-21T06:44:28.317Z,95978.45
2023-10-21T06:46:55.754Z,95981.45
2023-10-21T06:49:22.982Z,95987.23
2023-10-21T06:51:51.144Z,95990.30
2023-10-21T06:54:18.938Z,95995.81
2023-10-21T06:56:49.672Z,95999.06
2023-10-21T06:59:17.576Z,96002.55
2023-10-21T07:01:44.892Z,96010.30
2023-10-21T07:04:12.182Z,96020.38
2023-10-21T07:06:40.147Z,96024.08
2023-10-21T07:09:08.867Z,96016.82
2023-10-21T07:11:36.332Z,96018.35
2023-10-21T07:14:05.362Z,96024.84
2023-10-21T07:16:33.159Z,96035.27
2023-10-21T07:19:00.359Z,96033.30
2023-10-21T07:21:27.691Z,96031.30
2023-10-21T07:23:55.173Z,96031.21
2023-10-21T07:26:22.634Z,96039.29
2023-10-21T07:28:49.879Z,96053.41
2023-10-21T07:31:17.171Z,96047.45
2023-10-21T07:33:44.460Z,96058.25
2023-10-21T07:36:11.746Z,96068.70
2023-10-21T07:38:39.041Z,96069.16
2023-10-21T07:41:14.108Z,96059.61
2023-10-21T07:43:41.453Z,96066.23
2023-10-21T07:46:08.735Z,96061.84
2023-10-21T07:48:36.099Z,96060.63
2023-10-21T07:51:03.943Z,96061.12
2023-10-21T07:53:31.104Z,96068.80
2023-10-21T07:55:58.358Z,96074.92
2023-10-21T07:58:26.224Z,96081.32
2023-10-21T08:00:53.468Z,96086.70
2023-10-21T08:03:21.504Z,96089.51
2023-10-21T08:05:48.808Z,96099.19
2023-10-21T08:08:16.240Z,96108.90
2023-10-21T08:10:43.653Z,96121.35
2023-10-21T08:13:10.869Z,96128.91
2023-10-21T08:15:38.148Z,96126.17
2023-10-21T08:18:05.643Z,96136.37
2023-10-21T08:20:33.023Z,96142.04
2023-10-21T08:23:00.271Z,96146.75
2023-10-21T08:25:27.519Z,96153.13
2023-10-21T08:27:54.656Z,96158.14
2023-10-21T08:30:22.043Z,96159.70
2023-10-21T08:32:52.436Z,96168.23
2023-10-21T08:35:20.069Z,96168.77
2023-10-21T08:37:47.449Z,96167.83
2023-10-21T08:40:15.150Z,96174.28
2023-10-21T08:43:01.069Z,96179.74
2023-10-21T08:45:31.322Z,96185.16
2023-10-21T08:47:59.798Z,96190.98
2023-10-21T08:50:28.869Z,96198.95
2023-10-21T08:52:59.633Z,96209.54
2023-10-21T08:55:27.441Z,96219.38
2023-10-21T08:57:55.630Z,96223.95
2023-10-21T09:00:23.123Z,96218.39
2023-10-21T09:02:50.734Z,96224.27
2023-10-21T09:05:18.633Z,96228.81
2023-10-21T09:07:51.014Z,96224.58
2023-10-21T09:10:19.526Z,96228.56
2023-10-21T09:12:47.204Z,96235.00
2023-10-21T09:15:16.942Z,96239.77
2023-10-21T09:17:53.796Z,96244.25
2023-10-21T09:20:23.064Z,96251.34
2023-10-21T09:22:56.883Z,96251.12
2023-10-21T09:25:24.736Z,96250.02
2023-10-21T09:27:59.392Z,96253.11
2023-10-21T09:30:28.558Z,96258.40
2023-10-21T09:33:06.318Z,96272.05
2023-10-21T09:35:36.310Z,96268.80
2023-10-21T09:38:19.561Z,96269.02
2023-10-21T09:40:47.335Z,96282.34
2023-10-21T09:43:15.130Z,96284.81
2023-10-21T09:45:47.210Z,96289.70
2023-10-21T09:48:15.087Z,96290.26
2023-10-21T09:50:51.025Z,96289.14
2023-10-21T09:53:21.383Z,96287.61
2023-10-21T09:55:50.264Z,96287.63
2023-10-21T09:58:21.147Z,96288.61
2023-10-21T10:00:49.352Z,96282.59
2023-10-21T10:03:19.457Z,96279.86
2023-10-21T10:05:47.755Z,96277.32
2023-10-21T10:08:15.913Z,96281.20
2023-10-21T10:10:43.853Z,96284.27
2023-10-21T10:13:14.675Z,96285.64
2023-10-21T10:15:43.973Z,96287.88
2023-10-21T10:18:20.349Z,96289.16
2023-10-21T10:20:52.456Z,96291.77
2023-10-21T10:23:21.493Z,96296.71
2023-10-21T10:25:53.882Z,96293.79
2023-10-21T10:28:23.365Z,96293.74
2023-10-21T10:30:51.828Z,96296.31
2023-10-21T10:33:23.744Z,96303.31
2023-10-21T10:35:52.030Z,96310.85
2023-10-21T10:38:33.023Z,96310.96
2023-10-21T10:41:08.176Z,96315.42
2023-10-21T10:43:37.241Z,96308.52
2023-10-21T10:46:04.614Z,96313.45
2023-10-21T10:48:31.929Z,96316.97
2023-10-21T10:51:02.531Z,96315.96
2023-10-21T10:53:30.025Z,96319.02
2023-10-21T10:55:57.615Z,96318.12
2023-10-21T10:58:28.342Z,96317.14
2023-10-21T11:00:56.292Z,96315.38
2023-10-21T11:03:31.491Z,96327.60
2023-10-21T11:05:59.785Z,96335.01
2023-10-21T11:08:29.965Z,96332.06
2023-10-21T11:11:07.771Z,96335.05
2023-10-21T11:13:35.154Z,96338.67
2023-10-21T11:16:07.113Z,96340.15
2023-10-21T11:18:35.938Z,96349.07
2023-10-21T11:21:03.232Z,96347.16
2023-10-21T11:23:30.615Z,96353.02
2023-10-21T11:26:00.516Z,96354.84
2023-10-21T11:28:29.296Z,96354.63
2023-10-21T11:31:00.275Z,96362.71
2023-10-21T11:33:28.653Z,96363.70
2023-10-21T11:35:57.877Z,96370.02
2023-10-21T11:38:25.305Z,96384.45
2023-10-21T11:40:52.636Z,96387.94
2023-10-21T11:43:20.640Z,96390.13
2023-10-21T11:45:51.142Z,96391.84
2023-10-21T11:48:19.082Z,96398.83
2023-10-21T11:50:47.187Z,96402.21
2023-10-21T11:53:15.153Z,96402.34
2023-10-21T11:55:46.106Z,96405.57
2023-10-21T11:58:32.047Z,96408.11
2023-10-21T12:01:28.769Z,96410.27
2023-10-21T12:04:31.269Z,96414.61
2023-10-21T12:07:07.432Z,96420.17
2023-10-21T12:09:53.075Z,96423.60
2023-10-21T12:12:38.449Z,96424.30
2023-10-21T12:15:11.847Z,96427.48
2023-10-21T12:17:41.767Z,96434.91
2023-10-21T12:20:36.098Z,96434.34
2023-10-21T12:23:32.317Z,96441.98
2023-10-21T12:25:59.983Z,96440.80
2023-10-21T12:28:35.983Z,96441.85
2023-10-21T12:31:21.984Z,96448.00
2023-10-21T12:34:07.848Z,96452.89
2023-10-21T12:36:36.679Z,96452.38
2023-10-21T12:39:19.275Z,96454.28
2023-10-21T12:41:53.453Z,96448.92
2023-10-21T12:44:29.013Z,96454.29
2023-10-21T12:47:02.499Z,96457.20
2023-10-21T12:49:32.428Z,96458.48
2023-10-21T12:52:00.522Z,96464.73
2023-10-21T12:54:32.906Z,96467.84
2023-10-21T12:57:00.284Z,96467.31
2023-10-21T12:59:27.772Z,96472.37
2023-10-21T13:02:19.943Z,96473.60
2023-10-21T13:04:47.528Z,96466.18
2023-10-21T13:07:14.939Z,96471.29
2023-10-21T13:09:44.419Z,96474.91
2023-10-21T13:12:16.159Z,96472.91
2023-10-21T13:14:43.924Z,96473.23
2023-10-21T13:17:11.245Z,96477.11
2023-10-21T13:19:39.083Z,96481.84
2023-10-21T13:22:07.634Z,96487.78
2023-10-21T13:24:36.803Z,96488.59
2023-10-21T13:27:07.568Z,96497.80
2023-10-21T13:29:34.993Z,96503.90
2023-10-21T13:32:02.818Z,96504.02
2023-10-21T13:34:31.389Z,96507.27
2023-10-21T13:36:58.859Z,96516.64
2023-10-21T13:39:29.789Z,96520.84
2023-10-21T13:41:57.741Z,96526.08
2023-10-21T13:44:25.015Z,96524.78
2023-10-21T13:46:52.376Z,96523.96
2023-10-21T13:49:19.937Z,96529.91
2023-10-21T13:51:48.753Z,96532.85
2023-10-21T13:54:16.466Z,96538.55
2023-10-21T13:56:44.076Z,96538.36
2023-10-21T13:59:15.024Z,96536.31
2023-10-21T14:01:44.086Z,96543.45
2023-10-21T14:04:14.276Z,96545.85
2023-10-21T14:06:42.497Z,96552.04
2023-10-21T14:09:17.655Z,96553.02
2023-10-21T14:11:45.081Z,96553.02
2023-10-21T14:14:12.385Z,96556.02
2023-10-21T14:16:39.540Z,96553.13
2023-10-21T14:19:10.002Z,96551.30
2023-10-21T14:21:37.755Z,96555.16
2023-10-21T14:24:08.115Z,96558.05
2023-10-21T14:26:37.083Z,96559.92
2023-10-21T14:29:04.492Z,96562.41
2023-10-21T14:31:31.971Z,96554.23
2023-10-21T14:33:59.639Z,96543.19
2023-10-21T14:36:26.995Z,96545.00
2023-10-21T14:38:54.129Z,96542.20
2023-10-21T14:41:21.477Z,96538.48
2023-10-21T14:43:49.310Z,96541.24
2023-10-21T14:46:16.846Z,96546.25
2023-10-21T14:48:44.202Z,96547.62
2023-10-21T14:51:11.459Z,96550.90
2023-10-21T14:53:38.771Z,96553.83
2023-10-21T14:56:06.539Z,96558.70
2023-10-21T14:58:33.830Z,96557.27
2023-10-21T15:01:03.865Z,96556.36
2023-10-21T15:03:31.310Z,96558.00
2023-10-21T15:06:01.491Z,96556.94
2023-10-21T15:08:28.753Z,96554.95
2023-10-21T15:10:55.952Z,96562.90
2023-10-21T15:13:29.770Z,96565.86
2023-10-21T15:16:03.517Z,96574.29
2023-10-21T15:18:32.254Z,96578.33
2023-10-21T15:21:07.545Z,96579.59
2023-10-21T15:23:36.647Z,96581.11
2023-10-21T15:26:24.342Z,96588.45
2023-10-21T15:28:51.631Z,96590.63
2023-10-21T15:31:19.208Z,96589.36
2023-10-21T15:33:46.864Z,96592.54
2023-10-21T15:36:14.465Z,96598.84
2023-10-21T15:38:41.801Z,96604.12
2023-10-21T15:41:19.651Z,96615.87
2023-10-21T15:43:47.125Z,96621.81
2023-10-21T15:46:14.572Z,96627.67
2023-10-21T15:48:42.279Z,96626.13
2023-10-21T15:51:12.272Z,96625.90
2023-10-21T15:53:40.120Z,96627.52
2023-10-21T15:56:08.131Z,96627.36
2023-10-21T15:58:35.695Z,96628.27
2023-10-21T16:01:03.268Z,96629.13
2023-10-21T16:03:30.788Z,96631.90
2023-10-21T16:05:58.534Z,96636.03
2023-10-21T16:08:26.166Z,96641.33
2023-10-21T16:11:04.808Z,96639.22
2023-10-21T16:13:35.005Z,96640.23
2023-10-21T16:16:04.209Z,96642.02
2023-10-21T16:18:34.050Z,96649.15
2023-10-21T16:21:01.692Z,96655.11
2023-10-21T16:23:29.401Z,96665.84
2023-10-21T16:26:01.804Z,96674.36
2023-10-21T16:28:29.953Z,96677.80
2023-10-21T16:30:57.875Z,96684.92
2023-10-21T16:33:25.790Z,96692.55
2023-10-21T16:35:56.195Z,96699.05
2023-10-21T16:38:26.423Z,96698.56
2023-10-21T16:40:54.857Z,96699.35
2023-10-21T16:43:22.650Z,96696.63
2023-10-21T16:45:50.710Z,96696.09
2023-10-21T16:48:19.754Z,96694.88
2023-10-21T16:50:47.597Z,96693.71
2023-10-21T16:53:15.568Z,96693.19
2023-10-21T16:55:43.320Z,96701.42
2023-10-21T16:58:11.534Z,96707.84
2023-10-21T17:00:39.412Z,96714.94
2023-10-21T17:03:07.621Z,96713.49
2023-10-21T17:05:39.179Z,96709.45
2023-10-21T17:08:07.337Z,96709.23
2023-10-21T17:10:35.719Z,96704.83
2023-10-21T17:13:03.302Z,96707.67
2023-10-21T17:15:31.214Z,96711.64
2023-10-21T17:17:59.726Z,96713.55
2023-10-21T17:20:28.744Z,96712.83
2023-10-21T17:22:56.629Z,96713.59
2023-10-21T17:25:25.693Z,96723.16
2023-10-21T17:27:53.692Z,96728.58
2023-10-21T17:30:22.180Z,96730.50
2023-10-21T17:32:51.075Z,96732.80
2023-10-21T17:35:19.214Z,96736.67
2023-10-21T17:37:47.439Z,96738.15
2023-10-21T17:40:15.632Z,96734.94
2023-10-21T17:42:43.732Z,96733.44
2023-10-21T17:45:11.534Z,96731.35
2023-10-21T17:47:39.999Z,96733.06
2023-10-21T17:50:13.370Z,96730.80
2023-10-21T17:52:42.118Z,96733.39
2023-10-21T17:55:10.691Z,96732.27
2023-10-21T17:57:40.246Z,96738.58
2023-10-21T18:00:09.063Z,96743.21
2023-10-21T18:02:40.468Z,96747.83
2023-10-21T18:05:09.919Z,96750.10
2023-10-21T18:07:38.322Z,96749.02
2023-10-21T18:10:06.470Z,96752.27
2023-10-21T18:12:36.520Z,96757.48
2023-10-21T18:15:06.664Z,96760.08
2023-10-21T18:17:36.503Z,96768.20
2023-10-21T18:20:08.281Z,96772.36
2023-10-21T18:22:36.449Z,96775.73
2023-10-21T18:25:05.377Z,96780.55
2023-10-21T18:27:33.868Z,96777.80
2023-10-21T18:30:02.326Z,96781.22
2023-10-21T18:32:29.768Z,96781.27
2023-10-21T18:34:58.510Z,96780.71
2023-10-21T18:37:26.268Z,96783.27
2023-10-21T18:39:54.176Z,96785.10
2023-10-21T18:42:22.195Z,96789.40
2023-10-21T18:44:50.466Z,96796.15
2023-10-21T18:47:17.920Z,96798.52
2023-10-21T18:49:45.672Z,96796.69
2023-10-21T18:52:17.840Z,96803.58
2023-10-21T18:54:45.854Z,96808.36
2023-10-21T18:57:14.850Z,96810.13
2023-10-21T18:59:42.438Z,96809.11
2023-10-21T19:02:12.966Z,96810.25
2023-10-21T19:04:41.451Z,96809.14
2023-10-21T19:07:10.358Z,96806.42
2023-10-21T19:09:38.753Z,96807.19
2023-10-21T19:12:07.204Z,96806.11
2023-10-21T19:14:35.225Z,96804.78
2023-10-21T19:17:05.208Z,96799.07
2023-10-21T19:19:35.503Z,96792.62
2023-10-21T19:22:04.213Z,96786.77
2023-10-21T19:24:32.579Z,96783.20
2023-10-21T19:27:00.974Z,96784.19
2023-10-21T19:29:30.947Z,96788.75
2023-10-21T19:32:00.457Z,96788.21
2023-10-21T19:34:29.276Z,96787.03
2023-10-21T19:36:57.069Z,96789.25
2023-10-21T19:39:31.302Z,96784.61
2023-10-21T19:41:59.655Z,96786.59
2023-10-21T19:44:28.199Z,96784.09
2023-10-21T19:46:56.674Z,96784.19
2023-10-21T19:49:24.989Z,96785.71
2023-10-21T19:51:53.244Z,96784.92
2023-10-21T19:54:21.161Z,96783.48
2023-10-21T19:56:48.740Z,96783.45
2023-10-21T19:59:16.691Z,96779.45
2023-10-21T20:01:45.167Z,96776.11
2023-10-21T20:04:14.124Z,96768.25
2023-10-21T20:06:42.547Z,96764.41
2023-10-21T20:09:15.634Z,96760.43
2023-10-21T20:11:44.332Z,96756.93
2023-10-21T20:14:12.142Z,96749.34
2023-10-21T20:16:39.969Z,96746.42
2023-10-21T20:19:07.594Z,96750.93
2023-10-21T20:21:37.441Z,96755.19
2023-10-21T20:24:05.327Z,96751.59
2023-10-21T20:26:33.321Z,96751.02
2023-10-21T20:29:00.782Z,96749.91
2023-10-21T20:31:28.705Z,96747.61
2023-10-21T20:33:56.152Z,96749.90
2023-10-21T20:36:24.677Z,96748.72
2023-10-21T20:39:01.951Z,96747.83
2023-10-21T20:41:29.319Z,96748.98
2023-10-21T20:43:57.065Z,96751.27
2023-10-21T20:46:25.599Z,96749.23
2023-10-21T20:48:53.316Z,96755.98
2023-10-21T20:51:20.761Z,96752.36
2023-10-21T20:53:48.322Z,96747.52
2023-10-21T20:56:26.387Z,96750.74
2023-10-21T20:58:55.344Z,96744.58
2023-10-21T21:01:30.961Z,96743.64
2023-10-21T21:04:05.395Z,96736.80
2023-10-21T21:06:32.953Z,96732.79
2023-10-21T21:09:00.242Z,96732.83
2023-10-21T21:11:27.586Z,96734.27
2023-10-21T21:13:54.830Z,96732.34
2023-10-21T21:16:22.050Z,96731.95
2023-10-21T21:18:49.467Z,96726.35
2023-10-21T21:21:16.698Z,96724.86
2023-10-21T21:23:44.041Z,96725.61
2023-10-21T21:26:11.357Z,96721.20
2023-10-21T21:28:38.562Z,96724.11
2023-10-21T21:31:05.729Z,96727.65
2023-10-21T21:33:32.961Z,96725.02
2023-10-21T21:36:01.768Z,96729.38
2023-10-21T21:38:29.161Z,96727.37
2023-10-21T21:40:56.951Z,96722.42
2023-10-21T21:43:24.310Z,96720.76
2023-10-21T21:45:51.679Z,96718.51
2023-10-21T21:48:19.263Z,96716.47
2023-10-21T21:50:46.496Z,96711.50
2023-10-21T21:53:13.656Z,96710.58
2023-10-21T21:55:44.856Z,96714.69
2023-10-21T21:58:12.122Z,96717.36
2023-10-21T22:00:43.851Z,96718.05
2023-10-21T22:03:11.174Z,96718.60
2023-10-21T22:05:39.627Z,96718.11
2023-10-21T22:08:07.297Z,96717.43
2023-10-21T22:10:34.926Z,96720.16
2023-10-21T22:13:02.548Z,96725.34
2023-10-21T22:15:29.848Z,96725.98
2023-10-21T22:17:57.312Z,96728.19
2023-10-21T22:20:25.620Z,96720.63
2023-10-21T22:22:55.459Z,96719.76
2023-10-21T22:25:29.832Z,96722.25
2023-10-21T22:27:57.568Z,96726.40
2023-10-21T22:30:24.733Z,96727.90
2023-10-21T22:32:52.091Z,96730.77
2023-10-21T22:35:19.565Z,96731.39
2023-10-21T22:37:46.762Z,96733.37
2023-10-21T22:40:18.712Z,96736.23
2023-10-21T22:42:46.261Z,96739.85
2023-10-21T22:45:18.852Z,96742.95
2023-10-21T22:47:47.599Z,96744.98
2023-10-21T22:50:15.021Z,96749.32
2023-10-21T22:52:42.373Z,96754.00
2023-10-21T22:55:09.775Z,96753.68
2023-10-21T22:57:36.923Z,96748.65
2023-10-21T23:00:06.100Z,96751.38
2023-10-21T23:02:33.637Z,96747.92
2023-10-21T23:05:00.937Z,96749.98
2023-10-21T23:07:28.197Z,96748.20
2023-10-21T23:09:55.517Z,96744.79
2023-10-21T23:12:22.727Z,96747.30
2023-10-21T23:14:50.502Z,96753.95
2023-10-21T23:17:17.718Z,96756.57
2023-10-21T23:19:45.052Z,96753.08
2023-10-21T23:22:12.358Z,96757.00
2023-10-21T23:24:41.111Z,96753.73
2023-10-21T23:27:08.550Z,96747.60
2023-10-21T23:29:35.959Z,96752.30
2023-10-21T23:32:03.173Z,96755.77
2023-10-21T23:34:30.435Z,96750.93
2023-10-21T23:36:58.078Z,96755.20
2023-10-21T23:39:25.379Z,96754.03
2023-10-21T23:41:54.199Z,96746.10
2023-10-21T23:44:21.428Z,96754.69
2023-10-21T23:46:48.647Z,96761.36
2023-10-21T23:49:15.886Z,96761.38
2023-10-21T23:51:43.113Z,96755.77
2023-10-21T23:54:10.406Z,96758.23
2023-10-21T23:56:37.796Z,96756.94
2023-10-21T23:59:05.018Z,96753.59
